Bei Facebook empfehlenBei Twitter postenGoogle plusPinterest

Das Wetter im Erzgebirge am 06.04.2017

Wetter und Klima am 06.04.2017 Holzhau im Erzgebirge (630m ü.NN)
Letzte gemessene Temperatur und Uhrzeit der Messung23:45:00 Uhr3.90 °C
Temperatur (Maximum / Höchstwert) und Uhrzeit der Messung17:00:00 Uhr8.80 °C
Temperatur (Minimum / Tiefstwert) und Uhrzeit der Messung05:45:001.10 °C
Errechneter Absolutwert der Temperaturschwankungen zwischen Tmin und Tmax des Tages7.70 K
Errechnete Tagesmitteltemperatur4.13438 °C
Gesamt - Niederschlag des Tages (in flüssiger Form)0.00 Liter / m²
Luftdruck (Maximum / Höchstwert) und Zeitpunkt der Messung22:00:00 Uhr1018.60 hPa
Luftdruck (Minimum / Tiefstwert) und Zeitpunkt der Messung04:45:00 Uhr1014.00 hPa
Errechneter Absolutwert der Luftdruckschwankungen des Tages4.60 hPa
Höchste gemessene Windgeschwindigkeit und Uhrzeit der Messung15:00:00 Uhr14.40 km/h
Errechnete Windhäufigkeit in Relation zu den Messwerten des Tages59.37500 %
Niedrigste Windkühle (Windchill) und Zeitpunkt der Messung06:00:00 Uhr-2.50 °C
Taupunkt (Maximum / Höchstwert) und Uhrzeit der Messung12:45:00 Uhr2.20 °C
Taupunkt (Minimum / Tiefstwert) und Uhrzeit der Messung20:30:00-1.30 °C
Anzahl der automatisch eingelesenen Messwerte 96

Detaillierte Wetter- und Klima- Messwerte für den 06.04.2017 in Holzhau im Erzgebirge (630m ü.NN)
ZeitTemperaturLuftdruckRel. LuftfeuchteWindWindrichtungWindchillTaupunktNiederschlag l/m²
23:45:003.90 °C1017.60 hPa75.00 %-0.10 °C 
23:30:003.80 °C1017.80 hPa74.00 %5.04 km/hW2.70 °C-0.40 °C 
23:15:003.80 °C1017.80 hPa74.00 %-0.40 °C 
23:00:003.80 °C1018.00 hPa74.00 %-0.40 °C 
22:45:003.90 °C1018.20 hPa74.00 %-0.30 °C 
22:30:004.10 °C1018.20 hPa74.00 %-0.10 °C 
22:15:004.30 °C1018.50 hPa73.00 %2.16 km/hWNW4.30 °C-0.10 °C 
22:00:004.40 °C1018.60 hPa72.00 %-0.20 °C 
21:45:004.30 °C1018.40 hPa72.00 %-0.30 °C 
21:30:004.30 °C1018.40 hPa72.00 %-0.30 °C 
21:15:004.10 °C1018.30 hPa71.00 %-0.70 °C 
21:00:004.10 °C1018.20 hPa71.00 %-0.70 °C 
20:45:003.90 °C1018.10 hPa70.00 %-1.10 °C 
20:30:003.90 °C1018.00 hPa69.00 %-1.30 °C 
20:15:004.10 °C1018.00 hPa68.00 %-1.30 °C 
20:00:004.40 °C1018.20 hPa67.00 %-1.20 °C 
19:45:004.80 °C1018.00 hPa65.00 %-1.20 °C 
19:30:005.20 °C1017.80 hPa64.00 %-1.00 °C 
19:15:005.60 °C1017.80 hPa62.00 %-1.10 °C 
19:00:006.30 °C1017.80 hPa60.00 %-0.90 °C 
18:45:006.80 °C1017.90 hPa60.00 %3.96 km/hNW6.80 °C-0.40 °C 
18:30:006.80 °C1017.90 hPa59.00 %5.76 km/hNW5.90 °C-0.60 °C 
18:15:006.90 °C1018.00 hPa57.00 %2.52 km/hWNW6.90 °C-1.00 °C 
18:00:007.60 °C1018.10 hPa54.00 %5.40 km/hWNW6.90 °C-1.10 °C 
17:45:008.10 °C1018.10 hPa55.00 %5.04 km/hNW7.60 °C-0.40 °C 
17:30:008.40 °C1018.30 hPa55.00 %4.32 km/hWNW8.40 °C-0.10 °C 
17:15:008.60 °C1018.10 hPa53.00 %6.12 km/hW7.80 °C-0.40 °C 
17:00:008.80 °C1018.00 hPa51.00 %10.08 km/hNW7.20 °C-0.80 °C 
16:45:008.50 °C1017.90 hPa55.00 %6.12 km/hW7.70 °C0.00 °C 
16:30:007.80 °C1018.00 hPa56.00 %13.32 km/hNNW5.40 °C-0.40 °C 
16:15:007.90 °C1018.10 hPa56.00 %0.72 km/hWNW7.90 °C-0.30 °C 
16:00:008.60 °C1018.00 hPa52.00 %2.52 km/hWSW8.60 °C-0.70 °C 
15:45:008.60 °C1018.20 hPa55.00 %7.20 km/hWNW7.50 °C0.10 °C 
15:30:008.50 °C1018.20 hPa57.00 %11.88 km/hW6.50 °C0.50 °C 
15:15:008.40 °C1018.30 hPa55.00 %6.12 km/hWNW7.60 °C-0.10 °C 
15:00:008.50 °C1018.40 hPa57.00 %14.40 km/hNW6.10 °C0.50 °C 
14:45:007.40 °C1018.20 hPa61.00 %0.40 °C 
14:30:007.40 °C1018.40 hPa61.00 %0.40 °C 
14:15:007.60 °C1018.40 hPa61.00 %0.60 °C 
14:00:007.90 °C1018.30 hPa65.00 %1.70 °C 
13:45:006.90 °C1018.30 hPa69.00 %1.60 °C 
13:30:006.60 °C1018.20 hPa68.00 %1.08 km/hW6.60 °C1.10 °C 
13:15:006.50 °C1018.00 hPa70.00 %1.40 °C 
13:00:006.50 °C1018.30 hPa69.00 %1.20 °C 
12:45:006.90 °C1018.40 hPa72.00 %3.24 km/hSW6.90 °C2.20 °C 
12:30:005.80 °C1018.60 hPa73.00 %3.60 km/hNW5.80 °C1.30 °C 
12:15:005.80 °C1018.40 hPa75.00 %1.70 °C 
12:00:005.30 °C1018.40 hPa77.00 %9.72 km/hWNW3.10 °C1.60 °C 
11:45:004.90 °C1018.30 hPa78.00 %7.56 km/hNW3.10 °C1.40 °C 
11:30:004.70 °C1018.10 hPa80.00 %3.60 km/hNW4.70 °C1.60 °C 
11:15:004.10 °C1018.00 hPa80.00 %7.20 km/hNW2.30 °C1.00 °C 
11:00:003.90 °C1018.00 hPa80.00 %0.80 °C 
10:45:003.30 °C1017.60 hPa82.00 %8.28 km/hNNW1.10 °C0.50 °C 
10:30:003.30 °C1017.50 hPa81.00 %6.84 km/hSW1.50 °C0.40 °C 
10:15:003.30 °C1017.30 hPa82.00 %9.00 km/hW0.90 °C0.50 °C 
10:00:002.80 °C1017.00 hPa84.00 %10.44 km/hNW-0.10 °C0.40 °C 
09:45:002.80 °C1016.90 hPa84.00 %2.52 km/hNNW2.80 °C0.40 °C 
09:30:002.40 °C1016.70 hPa84.00 %4.32 km/hWNW2.40 °C0.00 °C 
09:15:002.30 °C1016.50 hPa86.00 %6.12 km/hWNW0.60 °C0.20 °C 
09:00:002.10 °C1016.00 hPa86.00 %6.12 km/hW0.30 °C0.00 °C 
08:45:001.90 °C1015.70 hPa87.00 %9.00 km/hNW-0.80 °C0.00 °C 
08:30:001.80 °C1015.60 hPa87.00 %1.08 km/hWNW1.80 °C-0.10 °C 
08:15:001.60 °C1015.70 hPa88.00 %5.40 km/hWNW0.10 °C-0.20 °C 
08:00:001.40 °C1015.70 hPa88.00 %6.84 km/hNW-0.70 °C-0.40 °C 
07:45:001.30 °C1015.40 hPa89.00 %12.60 km/hW-2.40 °C-0.30 °C 
07:30:001.20 °C1015.30 hPa89.00 %4.32 km/hNW1.20 °C-0.40 °C 
07:15:001.30 °C1015.10 hPa89.00 %5.04 km/hWSW-0.10 °C-0.30 °C 
07:00:001.30 °C1015.00 hPa90.00 %4.68 km/hWNW1.30 °C-0.20 °C 
06:45:001.30 °C1014.90 hPa91.00 %9.72 km/hNNW-1.70 °C0.00 °C 
06:30:001.30 °C1014.50 hPa91.00 %2.88 km/hWNW1.30 °C0.00 °C 
06:15:001.20 °C1014.60 hPa91.00 %7.56 km/hW-1.20 °C-0.10 °C 
06:00:001.20 °C1014.60 hPa92.00 %12.60 km/hWNW-2.50 °C0.00 °C 
05:45:001.10 °C1014.40 hPa91.00 %2.88 km/hS1.10 °C-0.20 °C 
05:30:001.20 °C1014.30 hPa91.00 %-0.10 °C 
05:15:001.20 °C1014.20 hPa90.00 %4.32 km/hWNW1.20 °C-0.30 °C 
05:00:001.40 °C1014.10 hPa89.00 %-0.20 °C 
04:45:001.40 °C1014.00 hPa89.00 %3.96 km/hW1.40 °C-0.20 °C 
04:30:001.40 °C1014.00 hPa89.00 %4.32 km/hNW1.40 °C-0.20 °C 
04:15:001.50 °C1014.00 hPa89.00 %6.12 km/hW-0.30 °C-0.10 °C 
04:00:001.60 °C1014.20 hPa89.00 %0.00 °C 
03:45:001.60 °C1014.10 hPa89.00 %3.96 km/hNW1.60 °C0.00 °C 
03:30:001.60 °C1014.00 hPa89.00 %1.44 km/hWSW1.60 °C0.00 °C 
03:15:001.60 °C1014.00 hPa89.00 %3.96 km/hWNW1.60 °C0.00 °C 
03:00:001.50 °C1014.10 hPa90.00 %0.00 °C 
02:45:001.30 °C1014.20 hPa89.00 %3.60 km/hWNW1.30 °C-0.30 °C 
02:30:001.30 °C1014.10 hPa89.00 %-0.30 °C 
02:15:001.40 °C1014.40 hPa89.00 %-0.20 °C 
02:00:001.40 °C1014.50 hPa90.00 %-0.10 °C 
01:45:001.60 °C1014.60 hPa89.00 %0.00 °C 
01:30:001.90 °C1014.50 hPa88.00 %9.36 km/hNW-0.90 °C0.10 °C 
01:15:002.40 °C1014.40 hPa88.00 %0.60 °C 
01:00:002.80 °C1014.60 hPa88.00 %5.76 km/hNNW1.30 °C1.00 °C 
00:45:002.90 °C1014.70 hPa88.00 %1.10 °C 
00:30:002.90 °C1015.00 hPa88.00 %1.10 °C 
00:15:003.30 °C1014.90 hPa89.00 %1.70 °C 
00:00:003.50 °C1014.90 hPa89.00 %4.68 km/hW3.50 °C1.90 °C 

Permanenter Link zu dieser Seite: Wetter im Erzgebirge am 06.04.2017
Performance-Info: Die Erstellung der Seite / Statistik(en) / Tabelle(n) erforderte 5 Datenbankserver-Abfrage(n) und dauerte 100 Millisekunden. (Dieser Messwert ist von der Gesamt-Auslastung des Servers abhängig.)
Erzgebirge - Wetter | Erzgebirge - Wetter (Mobilgeräte) | Komplette Klimadatenbank